createdAt,value
2018-02-16T00:01:44.489Z,2.60
2018-02-16T00:04:18.290Z,2.60
2018-02-16T00:06:52.144Z,2.60
2018-02-16T00:09:32.433Z,2.60
2018-02-16T00:12:13.618Z,2.60
2018-02-16T00:14:48.160Z,2.60
2018-02-16T00:17:23.681Z,2.60
2018-02-16T00:19:58.347Z,2.50
2018-02-16T00:22:32.624Z,2.50
2018-02-16T00:25:06.390Z,2.40
2018-02-16T00:27:43.334Z,2.30
2018-02-16T00:30:17.224Z,2.30
2018-02-16T00:32:51.135Z,2.20
2018-02-16T00:35:26.246Z,2.20
2018-02-16T00:38:00.971Z,2.10
2018-02-16T00:40:35.939Z,2.10
2018-02-16T00:43:12.379Z,2.10
2018-02-16T00:45:46.371Z,2.00
2018-02-16T00:48:21.842Z,2.00
2018-02-16T00:50:57.308Z,2.00
2018-02-16T00:53:33.195Z,2.00
2018-02-16T00:56:07.088Z,1.90
2018-02-16T00:58:45.080Z,1.90
2018-02-16T01:01:19.821Z,1.90
2018-02-16T01:03:53.544Z,1.90
2018-02-16T01:06:28.390Z,2.00
2018-02-16T01:09:03.009Z,2.00
2018-02-16T01:11:37.052Z,2.00
2018-02-16T01:14:12.184Z,1.90
2018-02-16T01:16:46.003Z,1.90
2018-02-16T01:19:19.776Z,1.90
2018-02-16T01:21:53.468Z,1.80
2018-02-16T01:24:28.310Z,1.70
2018-02-16T01:27:03.842Z,1.70
2018-02-16T01:29:37.595Z,1.70
2018-02-16T01:32:12.172Z,1.70
2018-02-16T01:34:45.812Z,1.70
2018-02-16T01:37:19.466Z,1.70
2018-02-16T01:39:53.180Z,1.60
2018-02-16T01:42:27.244Z,1.60
2018-02-16T01:45:01.298Z,1.70
2018-02-16T01:47:35.114Z,1.60
2018-02-16T01:50:09.024Z,1.50
2018-02-16T01:52:42.691Z,1.40
2018-02-16T01:55:16.473Z,1.30
2018-02-16T01:57:52.251Z,1.20
2018-02-16T02:00:26.441Z,1.20
2018-02-16T02:03:01.524Z,1.30
2018-02-16T02:05:35.193Z,1.30
2018-02-16T02:08:09.166Z,1.30
2018-02-16T02:10:42.936Z,1.20
2018-02-16T02:13:16.724Z,1.20
2018-02-16T02:15:50.544Z,1.20
2018-02-16T02:18:25.136Z,1.20
2018-02-16T02:20:59.636Z,1.20
2018-02-16T02:23:33.324Z,1.20
2018-02-16T02:26:07.807Z,1.10
2018-02-16T02:28:42.591Z,1.10
2018-02-16T02:31:16.856Z,1.10
2018-02-16T02:33:51.701Z,1.10
2018-02-16T02:36:25.334Z,1.10
2018-02-16T02:41:54.036Z,1.00
2018-02-16T02:44:27.849Z,1.00
2018-02-16T02:47:01.625Z,1.00
2018-02-16T02:49:35.477Z,1.10
2018-02-16T02:52:09.338Z,1.10
2018-02-16T02:54:44.278Z,1.10
2018-02-16T02:57:17.883Z,1.10
2018-02-16T02:59:51.728Z,1.10
2018-02-16T03:02:25.401Z,1.10
2018-02-16T03:04:59.238Z,1.10
2018-02-16T03:07:32.944Z,1.10
2018-02-16T03:10:07.452Z,1.10
2018-02-16T03:12:41.132Z,1.10
2018-02-16T03:15:14.869Z,1.10
2018-02-16T03:17:49.246Z,1.20
2018-02-16T03:20:23.109Z,1.20
2018-02-16T03:22:56.989Z,1.20
2018-02-16T03:25:30.744Z,1.20
2018-02-16T03:28:05.356Z,1.30
2018-02-16T03:30:40.061Z,1.40
2018-02-16T03:33:14.007Z,1.30
2018-02-16T03:35:47.823Z,1.40
2018-02-16T03:38:21.479Z,1.40
2018-02-16T03:40:55.350Z,1.50
2018-02-16T03:43:30.631Z,1.60
2018-02-16T03:46:05.191Z,1.50
2018-02-16T03:48:39.181Z,1.60
2018-02-16T03:51:14.225Z,1.50
2018-02-16T03:53:47.802Z,1.60
2018-02-16T03:56:21.612Z,1.70
2018-02-16T03:58:56.442Z,1.70
2018-02-16T04:01:30.057Z,1.80
2018-02-16T04:04:03.847Z,1.80
2018-02-16T04:06:38.794Z,1.80
2018-02-16T04:09:12.587Z,1.80
2018-02-16T04:11:47.112Z,1.80
2018-02-16T04:14:20.950Z,1.80
2018-02-16T04:16:54.719Z,1.80
2018-02-16T04:19:29.234Z,1.90
2018-02-16T04:22:03.104Z,1.90
2018-02-16T04:24:38.735Z,2.00
2018-02-16T04:27:12.603Z,1.90
2018-02-16T04:29:51.884Z,2.00
2018-02-16T04:32:25.636Z,2.10
2018-02-16T04:35:00.264Z,2.00
2018-02-16T04:37:34.064Z,2.00
2018-02-16T04:40:08.696Z,2.00
2018-02-16T04:42:43.214Z,2.00
2018-02-16T04:45:17.057Z,2.00
2018-02-16T04:47:50.846Z,2.00
2018-02-16T04:50:24.635Z,2.00
2018-02-16T04:52:59.356Z,1.90
2018-02-16T04:55:33.276Z,1.80
2018-02-16T04:58:07.164Z,1.90
2018-02-16T05:00:41.716Z,1.80
2018-02-16T05:03:16.326Z,1.80
2018-02-16T05:05:51.034Z,1.80
2018-02-16T05:08:25.821Z,1.80
2018-02-16T05:11:01.287Z,1.80
2018-02-16T05:13:36.406Z,1.80
2018-02-16T05:16:10.171Z,1.80
2018-02-16T05:18:44.011Z,1.80
2018-02-16T05:21:17.664Z,1.70
2018-02-16T05:23:52.233Z,1.70
2018-02-16T05:26:25.973Z,1.70
2018-02-16T05:28:59.744Z,1.60
2018-02-16T05:31:33.705Z,1.60
2018-02-16T05:34:08.486Z,1.60
2018-02-16T05:36:42.338Z,1.70
2018-02-16T05:39:18.165Z,1.70
2018-02-16T05:41:51.835Z,1.70
2018-02-16T05:44:26.520Z,1.80
2018-02-16T05:47:00.314Z,1.80
2018-02-16T05:49:36.502Z,1.70
2018-02-16T05:52:10.299Z,1.70
2018-02-16T05:54:44.151Z,1.70
2018-02-16T05:57:17.927Z,1.70
2018-02-16T05:59:51.808Z,1.80
2018-02-16T06:02:25.517Z,1.80
2018-02-16T06:04:59.179Z,1.70
2018-02-16T06:07:32.934Z,1.70
2018-02-16T06:10:08.477Z,1.70
2018-02-16T06:12:42.121Z,1.70
2018-02-16T06:15:16.400Z,1.60
2018-02-16T06:17:50.176Z,1.60
2018-02-16T06:20:24.008Z,1.60
2018-02-16T06:22:57.808Z,1.60
2018-02-16T06:25:31.617Z,1.60
2018-02-16T06:28:05.418Z,1.60
2018-02-16T06:30:39.665Z,1.60
2018-02-16T06:33:13.545Z,1.50
2018-02-16T06:35:47.268Z,1.50
2018-02-16T06:38:22.693Z,1.60
2018-02-16T06:40:56.364Z,1.50
2018-02-16T06:43:30.891Z,1.50
2018-02-16T06:46:04.699Z,1.50
2018-02-16T06:48:38.436Z,1.60
2018-02-16T06:51:12.887Z,1.70
2018-02-16T06:53:46.642Z,1.70
2018-02-16T06:56:20.436Z,1.70
2018-02-16T06:58:54.148Z,1.80
2018-02-16T07:01:27.821Z,1.80
2018-02-16T07:04:01.574Z,1.80
2018-02-16T07:06:35.388Z,1.70
2018-02-16T07:09:09.169Z,1.70
2018-02-16T07:11:44.731Z,1.70
2018-02-16T07:14:19.206Z,1.80
2018-02-16T07:16:54.176Z,1.80
2018-02-16T07:19:28.275Z,1.80
2018-02-16T07:22:01.886Z,1.80
2018-02-16T07:24:37.896Z,1.80
2018-02-16T07:27:11.678Z,1.80
2018-02-16T07:29:45.420Z,1.80
2018-02-16T07:32:19.197Z,1.80
2018-02-16T07:34:52.964Z,1.90
2018-02-16T07:37:27.010Z,1.90
2018-02-16T07:40:04.707Z,2.00
2018-02-16T07:42:38.560Z,2.00
2018-02-16T07:45:14.527Z,2.00
2018-02-16T07:47:48.130Z,2.10
2018-02-16T07:50:21.933Z,2.10
2018-02-16T07:52:55.614Z,2.20
2018-02-16T07:55:30.344Z,2.20
2018-02-16T07:58:04.231Z,2.30
2018-02-16T08:00:39.824Z,2.30
2018-02-16T08:03:13.523Z,2.40
2018-02-16T08:05:47.159Z,2.50
2018-02-16T08:08:20.951Z,2.50
2018-02-16T08:10:54.800Z,2.60
2018-02-16T08:13:28.836Z,2.60
2018-02-16T08:16:02.713Z,2.60
2018-02-16T08:18:36.460Z,2.60
2018-02-16T08:21:10.230Z,2.70
2018-02-16T08:23:43.972Z,2.80
2018-02-16T08:26:17.845Z,2.90
2018-02-16T08:28:51.646Z,3.00
2018-02-16T08:31:25.557Z,3.00
2018-02-16T08:33:59.386Z,3.10
2018-02-16T08:36:34.096Z,3.20
2018-02-16T08:39:07.717Z,3.20
2018-02-16T08:41:41.594Z,3.30
2018-02-16T08:44:15.407Z,3.40
2018-02-16T08:46:49.148Z,3.40
2018-02-16T08:49:22.868Z,3.50
2018-02-16T08:51:58.044Z,3.60
2018-02-16T08:54:31.803Z,3.60
2018-02-16T08:57:05.455Z,3.70
2018-02-16T08:59:39.250Z,3.60
2018-02-16T09:02:13.838Z,3.60
2018-02-16T09:04:48.355Z,3.70
2018-02-16T09:07:22.334Z,3.70
2018-02-16T09:09:56.088Z,3.70
2018-02-16T09:12:29.879Z,3.70
2018-02-16T09:15:04.176Z,3.80
2018-02-16T09:17:37.960Z,3.80
2018-02-16T09:20:11.673Z,3.80
2018-02-16T09:22:45.460Z,3.90
2018-02-16T09:25:19.327Z,3.90
2018-02-16T09:27:54.195Z,3.90
2018-02-16T09:30:28.723Z,4.00
2018-02-16T09:33:03.276Z,4.00
2018-02-16T09:35:37.193Z,4.10
2018-02-16T09:38:11.006Z,4.10
2018-02-16T09:40:45.442Z,4.20
2018-02-16T09:43:19.260Z,4.10
2018-02-16T09:45:53.082Z,4.20
2018-02-16T09:48:26.772Z,4.30
2018-02-16T09:51:01.371Z,4.30
2018-02-16T09:53:35.170Z,4.30
2018-02-16T09:56:15.780Z,4.40
2018-02-16T09:58:50.697Z,4.50
2018-02-16T10:01:25.219Z,4.60
2018-02-16T10:03:59.727Z,4.70
2018-02-16T10:06:33.501Z,4.70
2018-02-16T10:09:08.074Z,5.00
2018-02-16T10:11:41.758Z,5.00
2018-02-16T10:14:16.532Z,5.20
2018-02-16T10:16:52.263Z,5.30
2018-02-16T10:19:26.088Z,5.40
2018-02-16T10:21:59.900Z,5.60
2018-02-16T10:24:34.514Z,5.50
2018-02-16T10:27:08.316Z,5.50
2018-02-16T10:29:42.132Z,5.50
2018-02-16T10:32:16.644Z,5.30
2018-02-16T10:34:52.311Z,5.30
2018-02-16T10:37:26.139Z,5.30
2018-02-16T10:40:03.122Z,5.20
2018-02-16T10:42:38.272Z,5.30
2018-02-16T10:45:12.903Z,5.30
2018-02-16T10:47:47.714Z,5.30
2018-02-16T10:50:21.457Z,5.40
2018-02-16T10:52:55.693Z,5.40
2018-02-16T10:55:29.997Z,5.60
2018-02-16T10:58:05.368Z,5.80
2018-02-16T11:00:46.109Z,5.90
2018-02-16T11:03:26.089Z,5.90
2018-02-16T11:06:00.808Z,5.60
2018-02-16T11:08:40.954Z,5.70
2018-02-16T11:11:14.738Z,5.70
2018-02-16T11:13:48.577Z,5.80
2018-02-16T11:16:23.134Z,5.80
2018-02-16T11:18:56.940Z,5.80
2018-02-16T11:21:32.642Z,5.80
2018-02-16T11:24:06.300Z,5.90
2018-02-16T11:26:40.150Z,6.10
2018-02-16T11:29:14.035Z,6.20
2018-02-16T11:31:47.841Z,6.00
2018-02-16T11:34:22.493Z,5.80
2018-02-16T11:36:57.690Z,5.40
2018-02-16T11:39:31.620Z,5.40
2018-02-16T11:42:06.509Z,5.50
2018-02-16T11:44:40.248Z,5.70
2018-02-16T11:47:14.104Z,5.80
2018-02-16T11:49:47.652Z,5.90
2018-02-16T11:52:22.214Z,5.40
2018-02-16T11:54:56.000Z,5.30
2018-02-16T11:57:29.940Z,5.40
2018-02-16T12:00:06.391Z,5.60
2018-02-16T12:02:42.908Z,6.00
2018-02-16T12:05:24.322Z,6.40
2018-02-16T12:07:58.600Z,6.40
2018-02-16T12:10:33.146Z,6.30
2018-02-16T12:13:08.522Z,6.20
2018-02-16T12:15:42.980Z,6.20
2018-02-16T12:18:16.770Z,6.20
2018-02-16T12:20:50.519Z,6.20
2018-02-16T12:23:25.365Z,5.80
2018-02-16T12:26:00.056Z,5.90
2018-02-16T12:28:34.603Z,5.80
2018-02-16T12:31:09.719Z,5.80
2018-02-16T12:33:44.071Z,5.90
2018-02-16T12:36:18.253Z,5.80
2018-02-16T12:38:52.716Z,6.40
2018-02-16T12:41:26.488Z,6.40
2018-02-16T12:44:04.081Z,6.30
2018-02-16T12:46:39.867Z,6.00
2018-02-16T12:49:13.671Z,6.00
2018-02-16T12:51:47.720Z,5.90
2018-02-16T12:54:22.399Z,6.00
2018-02-16T12:56:56.976Z,6.00
2018-02-16T12:59:31.715Z,6.10
2018-02-16T13:02:06.362Z,6.20
2018-02-16T13:04:40.236Z,6.30
2018-02-16T13:07:14.651Z,6.40
2018-02-16T13:09:49.239Z,6.30
2018-02-16T13:12:22.936Z,6.30
2018-02-16T13:14:57.523Z,6.20
2018-02-16T13:17:31.850Z,6.10
2018-02-16T13:20:07.099Z,6.10
2018-02-16T13:22:40.967Z,6.10
2018-02-16T13:25:15.770Z,6.10
2018-02-16T13:27:49.416Z,6.20
2018-02-16T13:30:23.668Z,6.60
2018-02-16T13:32:57.449Z,6.60
2018-02-16T13:35:31.125Z,7.10
2018-02-16T13:38:05.382Z,7.00
2018-02-16T13:40:39.091Z,7.40
2018-02-16T13:43:13.592Z,7.90
2018-02-16T13:45:47.776Z,8.30
2018-02-16T13:48:22.765Z,7.80
2018-02-16T13:50:56.672Z,7.50
2018-02-16T13:53:31.856Z,7.10
2018-02-16T13:56:06.623Z,7.10
2018-02-16T13:58:43.182Z,6.60
2018-02-16T14:01:24.234Z,6.60
2018-02-16T14:03:59.425Z,7.80
2018-02-16T14:06:36.211Z,7.70
2018-02-16T14:09:11.235Z,9.30
2018-02-16T14:11:45.906Z,9.20
2018-02-16T14:14:19.661Z,10.00
2018-02-16T14:16:53.389Z,10.20
2018-02-16T14:19:27.111Z,9.70
2018-02-16T14:22:01.744Z,9.20
2018-02-16T14:24:35.388Z,8.80
2018-02-16T14:27:10.335Z,9.50
2018-02-16T14:29:45.426Z,10.70
2018-02-16T14:32:19.176Z,10.70
2018-02-16T14:34:52.863Z,10.10
2018-02-16T14:37:31.676Z,10.10
2018-02-16T14:40:05.533Z,10.30
2018-02-16T14:42:39.336Z,10.00
2018-02-16T14:45:13.000Z,9.70
2018-02-16T14:47:46.663Z,9.30
2018-02-16T14:50:20.430Z,8.70
2018-02-16T14:52:54.192Z,7.90
2018-02-16T14:55:28.536Z,7.30
2018-02-16T14:58:02.131Z,6.80
2018-02-16T15:00:37.756Z,6.50
2018-02-16T15:03:11.593Z,6.40
2018-02-16T15:05:45.436Z,6.40
2018-02-16T15:08:19.184Z,6.30
2018-02-16T15:10:53.070Z,6.20
2018-02-16T15:13:28.650Z,6.20
2018-02-16T15:16:03.118Z,6.20
2018-02-16T15:18:36.932Z,6.10
2018-02-16T15:21:10.932Z,6.10
2018-02-16T15:23:44.706Z,6.20
2018-02-16T15:26:18.389Z,6.00
2018-02-16T15:28:53.130Z,5.90
2018-02-16T15:31:26.871Z,5.80
2018-02-16T15:34:01.431Z,5.70
2018-02-16T15:36:36.981Z,5.70
2018-02-16T15:39:10.959Z,5.70
2018-02-16T15:41:44.713Z,5.70
2018-02-16T15:44:20.107Z,6.20
2018-02-16T15:46:55.627Z,6.20
2018-02-16T15:49:29.349Z,6.30
2018-02-16T15:52:03.110Z,6.40
2018-02-16T15:54:36.979Z,6.30
2018-02-16T15:57:10.688Z,6.10
2018-02-16T15:59:45.375Z,6.00
2018-02-16T16:02:19.149Z,5.80
2018-02-16T16:04:53.599Z,5.60
2018-02-16T16:07:27.396Z,5.50
2018-02-16T16:10:01.221Z,5.40
2018-02-16T16:12:34.940Z,5.40
2018-02-16T16:15:08.699Z,5.30
2018-02-16T16:17:42.497Z,5.30
2018-02-16T16:20:16.203Z,5.30
2018-02-16T16:22:50.004Z,5.30
2018-02-16T16:25:24.328Z,5.30
2018-02-16T16:28:00.336Z,5.20
2018-02-16T16:30:34.619Z,5.20
2018-02-16T16:33:08.884Z,5.20
2018-02-16T16:35:45.555Z,5.20
2018-02-16T16:38:22.082Z,5.10
2018-02-16T16:40:57.055Z,5.10
2018-02-16T16:43:32.304Z,5.10
2018-02-16T16:46:07.301Z,5.10
2018-02-16T16:48:41.187Z,5.00
2018-02-16T16:51:16.609Z,5.00
2018-02-16T16:53:50.914Z,5.00
2018-02-16T16:56:25.805Z,5.00
2018-02-16T16:59:02.887Z,4.90
2018-02-16T17:01:37.330Z,4.90
2018-02-16T17:04:12.468Z,4.90
2018-02-16T17:06:47.079Z,4.90
2018-02-16T17:09:24.604Z,4.90
2018-02-16T17:11:59.812Z,4.80
2018-02-16T17:14:40.900Z,4.80
2018-02-16T17:17:27.520Z,4.90
2018-02-16T17:20:05.583Z,4.90
2018-02-16T17:22:41.894Z,4.80
2018-02-16T17:25:21.000Z,4.90
2018-02-16T17:27:57.740Z,4.90
2018-02-16T17:30:33.920Z,4.90
2018-02-16T17:33:13.330Z,4.90
2018-02-16T17:35:51.097Z,4.90
2018-02-16T17:38:29.135Z,4.90
2018-02-16T17:41:03.617Z,4.90
2018-02-16T17:43:37.257Z,4.90
2018-02-16T17:46:10.953Z,4.90
2018-02-16T17:48:45.539Z,4.80
2018-02-16T17:51:19.245Z,4.80
2018-02-16T17:53:53.161Z,4.80
2018-02-16T17:56:28.193Z,4.80
2018-02-16T17:59:03.819Z,4.70
2018-02-16T18:01:44.167Z,4.70
2018-02-16T18:04:19.673Z,4.70
2018-02-16T18:06:53.220Z,4.70
2018-02-16T18:09:30.526Z,4.70
2018-02-16T18:12:04.178Z,4.70
2018-02-16T18:14:40.625Z,4.70
2018-02-16T18:17:15.110Z,4.70
2018-02-16T18:19:49.284Z,4.60
2018-02-16T18:22:24.137Z,4.60
2018-02-16T18:24:59.977Z,4.60
2018-02-16T18:27:35.822Z,4.60
2018-02-16T18:30:10.079Z,4.60
2018-02-16T18:32:44.570Z,4.60
2018-02-16T18:35:19.167Z,4.50
2018-02-16T18:37:53.696Z,4.40
2018-02-16T18:40:27.317Z,4.40
2018-02-16T18:43:01.534Z,4.40
2018-02-16T18:45:36.893Z,4.40
2018-02-16T18:48:13.321Z,4.30
2018-02-16T18:50:48.657Z,4.20
2018-02-16T18:53:22.874Z,4.20
2018-02-16T18:55:56.511Z,4.20
2018-02-16T18:58:31.235Z,4.10
2018-02-16T19:01:05.280Z,4.10
2018-02-16T19:03:42.700Z,4.10
2018-02-16T19:06:23.069Z,4.00
2018-02-16T19:08:59.242Z,3.90
2018-02-16T19:11:36.085Z,3.90
2018-02-16T19:14:13.292Z,3.80
2018-02-16T19:16:47.953Z,3.70
2018-02-16T19:19:26.762Z,3.70
2018-02-16T19:22:05.254Z,3.70
2018-02-16T20:13:01.306Z,2.70
2018-02-16T20:15:38.784Z,2.60
2018-02-16T20:24:26.314Z,2.50
2018-02-16T20:27:05.049Z,2.40
2018-02-16T20:29:44.267Z,2.40
2018-02-16T20:38:10.432Z,2.30
2018-02-16T20:40:53.008Z,2.30
2018-02-16T20:43:32.524Z,2.30
2018-02-16T20:46:08.502Z,2.30
2018-02-16T20:48:48.380Z,2.30
2018-02-16T20:51:23.604Z,2.30
2018-02-16T20:53:59.226Z,2.20
2018-02-16T20:56:34.973Z,2.10
2018-02-16T20:59:13.276Z,2.00
2018-02-16T21:02:14.053Z,1.90
2018-02-16T21:44:33.381Z,1.50
2018-02-16T21:47:10.525Z,1.60
2018-02-16T21:49:46.824Z,1.50
2018-02-16T21:52:25.004Z,1.50
2018-02-16T21:55:03.851Z,1.50
2018-02-16T21:57:40.444Z,1.50
2018-02-16T22:00:14.974Z,1.50
2018-02-16T22:02:49.369Z,1.50
2018-02-16T22:05:23.794Z,1.40
2018-02-16T22:10:40.771Z,1.40
2018-02-16T22:13:15.658Z,1.30
2018-02-16T22:15:50.543Z,1.30
2018-02-16T22:18:26.382Z,1.20
2018-02-16T22:21:02.060Z,1.10
2018-02-16T22:23:41.201Z,1.10
2018-02-16T22:28:58.832Z,1.20
2018-02-16T22:31:34.035Z,1.20
2018-02-16T22:34:08.388Z,1.20
2018-02-16T22:36:42.085Z,1.10
2018-02-16T22:39:15.855Z,1.00
2018-02-16T22:41:50.287Z,0.90
2018-02-16T22:44:24.772Z,0.90
2018-02-16T22:46:58.783Z,0.80
2018-02-16T22:49:35.256Z,0.60
2018-02-16T22:52:08.960Z,0.60
2018-02-16T22:54:42.868Z,0.60
2018-02-16T22:57:18.799Z,0.50
2018-02-16T22:59:52.566Z,0.40
2018-02-16T23:02:28.627Z,0.40
2018-02-16T23:05:02.947Z,0.40
2018-02-16T23:07:37.156Z,0.30
2018-02-16T23:10:13.052Z,0.30
2018-02-16T23:12:50.484Z,0.20
2018-02-16T23:15:24.737Z,0.20
2018-02-16T23:17:59.476Z,0.20
2018-02-16T23:20:36.363Z,0.20
2018-02-16T23:23:12.222Z,0.10
2018-02-16T23:25:46.827Z,0.10
2018-02-16T23:28:22.404Z,0.10
2018-02-16T23:30:57.227Z,0.10
2018-02-16T23:33:35.228Z,0.20
2018-02-16T23:36:13.662Z,0.30
2018-02-16T23:38:48.374Z,0.30
2018-02-16T23:41:25.058Z,0.30
2018-02-16T23:46:51.591Z,0.20
2018-02-16T23:49:26.553Z,0.30
2018-02-16T23:52:06.338Z,0.30
2018-02-16T23:54:48.907Z,0.30
2018-02-16T23:57:23.454Z,0.40
2018-02-16T23:59:59.369Z,0.40
